Benoit, Wisconsin
Current Conditions -  °F | °C
As of 12:53 AM on Saturday 29 Nov 2014 (Local Time) from KASX Reporting Station
Overcast Overcast  
Wind Chill: 19°   Ceiling: 3700
Heat Index: 19°   Visibility: 10mi
Dew Point: 15°   Wind: 0mph
Humidity: 85%   Direction: NA
Pressure: 29.72"   Gusts: NA
Location:  46.5°N, 91.08°W
Report Text: KASX 290653Z AUTO 00000KT 10SM OVC037 M07/M09 A2972 RMK AO2 SLP081 T10721094
Loading
Personal Weather Stations






























Interactive Weather Map New forecast layout! Learn more

10-Day Weather Forecast

Advertisements
Track Severe Weather on mobile